VEJS/IXW METAR and TAF weather

Enter ICAO airport designator
Station Type Date Time Source
VEJS METAR 2019/08/22 12:00 UTC NOAA

VEJS 221200Z 00000KT 2500 HZ SCT020 SCT025 BKN100 29/25 Q1000


Station Type Date Time Source
VEJS Decoded METAR 2019/08/22 12:00 UTC NOAA

Station name not available
Aug 22, 2019 - 08:00 AM EDT / 2019.08.22 1200 UTC
Wind: Calm:0
Visibility: 1 mile(s):0
Sky conditions: mostly cloudy
Weather: haze
Temperature: 84 F (29 C)
Dew Point: 77 F (25 C)
Relative Humidity: 79%
Pressure (altimeter): 29.53 in. Hg (1000 hPa)
ob: VEJS 221200Z 00000KT 2500 HZ SCT020 SCT025 BKN100 29/25 Q1000
cycle: 12

Station Type Date Time Source
VEJS TAF 2009/11/01 09:00 UTC NOAA

TAF VEJS 010900Z 0112/0121 36004KT 2500 HZ FEW020 SCT025 SCT100
BECMG 0116/0118 00000KT 2000 HZ FEW018 SCT
BECMG 0119/0121 00000KT 1600 BR

Example: see airport list